Time;durP1;ratioP1;P1;durP2;ratioP2;P2;SDS_P1;SDS_P2;PMS_P1;PMS_P2;Temp;Humidity;BMP_temperature;BMP_pressure;BME280_temperature;BME280_humidity;BME280_pressure;Samples;Min_cycle;Max_cycle;Signal;HPM_P1;HPM_P2
2023/09/07 00:00:00;;;;;;;;;;;22.10;65.20;;;;;;5007001;28;20464;-80
2023/09/07 00:02:27;;;;;;;;;;;22.10;65.30;;;;;;5023344;28;19972;-78
2023/09/07 00:04:55;;;;;;;;;;;22.10;65.30;;;;;;5010895;28;19950;-80
2023/09/07 00:07:22;;;;;;;;;;;22.00;65.20;;;;;;5027200;28;19950;-80
2023/09/07 00:09:48;;;;;;;;;;;22.00;65.30;;;;;;5026603;28;19959;-79
2023/09/07 00:12:15;;;;;;;;;;;22.00;65.40;;;;;;5023159;28;19964;-78
2023/09/07 00:14:41;;;;;;;;;;;21.90;65.50;;;;;;5023310;28;19950;-79
2023/09/07 00:17:08;;;;;;;;;;;21.90;65.60;;;;;;5023363;28;19963;-80
2023/09/07 00:19:36;;;;;;;;;;;21.90;65.60;;;;;;5025114;28;19929;-79
2023/09/07 00:22:05;;;;;;;;;;;21.80;65.60;;;;;;5010485;28;19936;-80
2023/09/07 00:24:32;;;;;;;;;;;21.80;65.80;;;;;;5026329;28;19999;-80
2023/09/07 00:26:59;;;;;;;;;;;21.80;65.80;;;;;;5027342;28;20442;-79
2023/09/07 00:29:26;;;;;;;;;;;21.70;65.90;;;;;;5006789;28;20721;-80
2023/09/07 00:31:53;;;;;;;;;;;21.70;66.00;;;;;;5019743;28;19959;-80
2023/09/07 00:34:19;;;;;;;;;;;21.70;66.10;;;;;;5026885;28;19947;-79
2023/09/07 00:36:46;;;;;;;;;;;21.60;66.10;;;;;;5023038;28;20288;-79
2023/09/07 00:39:14;;;;;;;;;;;21.60;66.20;;;;;;5026921;28;19943;-78
2023/09/07 00:41:41;;;;;;;;;;;21.50;66.20;;;;;;5004773;28;20003;-79
2023/09/07 00:44:08;;;;;;;;;;;21.50;66.30;;;;;;5025378;28;19951;-79
2023/09/07 00:46:34;;;;;;;;;;;21.50;66.30;;;;;;5018121;28;19933;-81
2023/09/07 00:49:01;;;;;;;;;;;21.50;66.50;;;;;;5028363;28;20569;-81
2023/09/07 00:51:28;;;;;;;;;;;21.40;66.40;;;;;;5020938;28;19964;-81
2023/09/07 00:53:54;;;;;;;;;;;21.40;66.50;;;;;;5025823;28;19966;-80
2023/09/07 00:56:23;;;;;;;;;;;21.40;66.60;;;;;;5007114;28;19966;-80
2023/09/07 00:58:50;;;;;;;;;;;21.40;66.60;;;;;;5023566;28;20438;-80
2023/09/07 01:01:17;;;;;;;;;;;21.30;66.60;;;;;;5019258;28;19936;-81
2023/09/07 01:03:44;;;;;;;;;;;21.30;66.70;;;;;;5021214;28;19936;-81
2023/09/07 01:06:15;;;;;;;;;;;21.30;66.70;;;;;;5019827;28;20363;-81
2023/09/07 01:08:43;;;;;;;;;;;21.20;66.90;;;;;;5026654;28;19944;-79
2023/09/07 01:11:14;;;;;;;;;;;21.20;67.00;;;;;;5008368;28;20068;-81
2023/09/07 01:13:42;;;;;;;;;;;21.20;67.10;;;;;;5003389;28;19930;-81
2023/09/07 01:16:09;;;;;;;;;;;21.20;67.20;;;;;;5028048;28;19962;-80
2023/09/07 01:18:37;;;;;;;;;;;21.10;67.10;;;;;;5006549;28;19943;-81
2023/09/07 01:21:07;;;;;;;;;;;21.10;67.20;;;;;;5026179;28;19940;-81
2023/09/07 01:23:36;;;;;;;;;;;21.10;67.30;;;;;;5021254;28;20047;-80
2023/09/07 01:26:02;;;;;;;;;;;21.10;67.30;;;;;;5023683;28;19947;-80
2023/09/07 01:28:29;;;;;;;;;;;21.00;67.40;;;;;;5026845;28;19987;-80
2023/09/07 01:30:56;;;;;;;;;;;21.00;67.50;;;;;;5025772;28;19959;-81
2023/09/07 01:33:22;;;;;;;;;;;20.90;67.60;;;;;;5016526;28;19930;-81
2023/09/07 01:35:49;;;;;;;;;;;20.90;67.60;;;;;;5019516;28;19951;-81
2023/09/07 01:38:16;;;;;;;;;;;20.90;67.80;;;;;;5022185;28;20452;-81
2023/09/07 01:40:44;;;;;;;;;;;20.80;67.80;;;;;;5022190;28;20431;-80
2023/09/07 01:43:10;;;;;;;;;;;20.80;67.80;;;;;;5031279;28;19983;-81
2023/09/07 01:45:37;;;;;;;;;;;20.80;68.00;;;;;;5009126;28;19991;-80
2023/09/07 01:48:04;;;;;;;;;;;20.80;68.00;;;;;;5010144;28;19983;-80
2023/09/07 01:50:31;;;;;;;;;;;20.70;68.00;;;;;;5013206;28;19962;-79
2023/09/07 01:53:00;;;;;;;;;;;20.70;68.00;;;;;;5025977;28;19980;-81
2023/09/07 01:55:27;;;;;;;;;;;20.70;68.20;;;;;;5025828;28;19936;-81
2023/09/07 01:57:55;;;;;;;;;;;20.70;68.30;;;;;;5030498;28;19951;-79
2023/09/07 02:00:22;;;;;;;;;;;20.60;68.20;;;;;;5036345;28;19943;-81
2023/09/07 02:02:49;;;;;;;;;;;20.60;68.30;;;;;;5012539;28;20017;-80
2023/09/07 02:05:16;;;;;;;;;;;20.60;68.30;;;;;;5031758;28;19967;-80
2023/09/07 02:07:43;;;;;;;;;;;20.60;68.50;;;;;;5024638;28;19970;-79
2023/09/07 02:10:10;;;;;;;;;;;20.50;68.50;;;;;;5030947;28;19954;-81
2023/09/07 02:12:37;;;;;;;;;;;20.50;68.50;;;;;;5038876;28;19959;-81
2023/09/07 02:15:05;;;;;;;;;;;20.50;68.60;;;;;;5023069;28;19929;-81
2023/09/07 02:17:32;;;;;;;;;;;20.40;68.70;;;;;;5032730;28;19959;-79
2023/09/07 02:19:59;;;;;;;;;;;20.40;68.80;;;;;;5044195;28;19933;-79
2023/09/07 02:22:26;;;;;;;;;;;20.40;68.80;;;;;;5030069;28;20445;-80
2023/09/07 02:24:52;;;;;;;;;;;20.30;68.80;;;;;;5024725;28;19948;-81
2023/09/07 02:27:19;;;;;;;;;;;20.30;68.90;;;;;;5027992;28;19998;-81
2023/09/07 02:29:46;;;;;;;;;;;20.30;68.90;;;;;;5009499;28;19987;-80
2023/09/07 02:32:14;;;;;;;;;;;20.30;69.00;;;;;;5022357;28;20617;-81
2023/09/07 02:34:42;;;;;;;;;;;20.30;69.10;;;;;;4995255;28;20362;-80
2023/09/07 02:37:08;;;;;;;;;;;20.30;69.20;;;;;;5026570;28;20452;-80
2023/09/07 02:39:35;;;;;;;;;;;20.20;69.20;;;;;;5027226;28;19933;-79
2023/09/07 02:42:02;;;;;;;;;;;20.20;69.30;;;;;;5004299;28;20295;-80
2023/09/07 02:44:28;;;;;;;;;;;20.10;69.30;;;;;;5009651;28;20024;-81
2023/09/07 02:46:55;;;;;;;;;;;20.10;69.40;;;;;;4993143;28;20003;-80
2023/09/07 02:49:23;;;;;;;;;;;20.10;69.50;;;;;;5006975;28;20553;-80
2023/09/07 02:51:50;;;;;;;;;;;20.00;69.50;;;;;;5007839;28;19990;-80
2023/09/07 02:54:16;;;;;;;;;;;20.00;69.60;;;;;;5026025;28;19966;-80
2023/09/07 02:56:46;;;;;;;;;;;20.00;69.60;;;;;;5031169;28;19950;-79
2023/09/07 02:59:13;;;;;;;;;;;20.00;69.60;;;;;;5005907;28;19994;-81
2023/09/07 03:01:40;;;;;;;;;;;20.00;69.70;;;;;;5006523;28;20030;-80
2023/09/07 03:04:07;;;;;;;;;;;19.90;69.70;;;;;;5026217;28;19933;-81
2023/09/07 03:06:35;;;;;;;;;;;19.90;69.80;;;;;;5028245;28;19939;-80
2023/09/07 03:09:02;;;;;;;;;;;19.90;69.80;;;;;;5022130;28;19955;-80
2023/09/07 03:11:33;;;;;;;;;;;19.90;70.00;;;;;;5005637;28;19992;-80
2023/09/07 03:14:00;;;;;;;;;;;19.80;70.00;;;;;;5025362;28;19929;-80
2023/09/07 03:16:26;;;;;;;;;;;19.80;70.00;;;;;;5024924;28;19993;-80
2023/09/07 03:18:54;;;;;;;;;;;19.80;70.10;;;;;;5007235;28;19947;-79
2023/09/07 03:21:25;;;;;;;;;;;19.80;70.10;;;;;;5023031;28;19940;-79
2023/09/07 03:23:53;;;;;;;;;;;19.80;70.20;;;;;;5025775;28;19933;-80
2023/09/07 03:26:20;;;;;;;;;;;19.70;70.20;;;;;;5031898;28;19940;-80
2023/09/07 03:28:46;;;;;;;;;;;19.70;70.20;;;;;;5008910;28;19946;-79
2023/09/07 03:31:15;;;;;;;;;;;19.70;70.30;;;;;;4998438;28;19963;-80
2023/09/07 03:33:41;;;;;;;;;;;19.70;70.40;;;;;;5022634;28;19929;-80
2023/09/07 03:36:09;;;;;;;;;;;19.70;70.50;;;;;;5025100;28;19963;-80
2023/09/07 03:38:36;;;;;;;;;;;19.60;70.40;;;;;;5005949;28;19948;-79
2023/09/07 03:41:04;;;;;;;;;;;19.60;70.40;;;;;;5024773;28;19940;-80
2023/09/07 03:43:32;;;;;;;;;;;19.60;70.50;;;;;;5028287;28;19965;-80
2023/09/07 03:45:58;;;;;;;;;;;19.50;70.50;;;;;;5005975;28;20314;-80
2023/09/07 03:48:25;;;;;;;;;;;19.50;70.60;;;;;;5022717;28;20476;-80
2023/09/07 03:50:52;;;;;;;;;;;19.50;71.50;;;;;;5024522;28;19952;-79
2023/09/07 03:53:18;;;;;;;;;;;19.50;70.70;;;;;;5026667;28;20307;-80
2023/09/07 03:55:53;;;;;;;;;;;19.50;70.70;;;;;;5023867;28;19950;-79
2023/09/07 03:58:21;;;;;;;;;;;19.40;70.80;;;;;;5005842;28;19958;-80
2023/09/07 04:00:48;;;;;;;;;;;19.40;70.80;;;;;;5024137;28;19940;-80
2023/09/07 04:03:15;;;;;;;;;;;19.40;70.90;;;;;;5025567;28;20046;-79
2023/09/07 04:05:42;;;;;;;;;;;19.40;71.00;;;;;;5007745;28;19959;-79
2023/09/07 04:08:10;;;;;;;;;;;19.40;71.00;;;;;;5005961;28;19936;-79
2023/09/07 04:10:37;;;;;;;;;;;19.30;71.00;;;;;;5005437;28;20057;-79
2023/09/07 04:13:04;;;;;;;;;;;19.30;71.00;;;;;;5021383;28;19929;-80
2023/09/07 04:15:33;;;;;;;;;;;19.30;71.20;;;;;;5028974;28;19929;-79
2023/09/07 04:17:59;;;;;;;;;;;19.30;71.30;;;;;;5019766;28;19964;-79
2023/09/07 04:20:28;;;;;;;;;;;19.30;71.30;;;;;;5026742;28;20457;-80
2023/09/07 04:22:54;;;;;;;;;;;19.30;71.40;;;;;;5024540;28;19970;-80
2023/09/07 04:25:21;;;;;;;;;;;19.20;71.40;;;;;;5005385;28;19943;-79
2023/09/07 04:27:48;;;;;;;;;;;19.20;71.40;;;;;;5021490;28;19951;-80
2023/09/07 04:30:14;;;;;;;;;;;19.20;71.50;;;;;;5022244;28;19929;-79
2023/09/07 04:32:43;;;;;;;;;;;19.10;71.50;;;;;;5019347;28;19959;-79
2023/09/07 04:35:10;;;;;;;;;;;19.10;71.50;;;;;;5026284;28;19952;-80
2023/09/07 04:37:37;;;;;;;;;;;19.10;71.50;;;;;;5023995;28;19947;-80
2023/09/07 04:40:04;;;;;;;;;;;19.10;71.60;;;;;;5021426;28;19929;-80
2023/09/07 04:42:31;;;;;;;;;;;19.10;71.60;;;;;;5022366;28;20519;-80
2023/09/07 04:44:57;;;;;;;;;;;19.10;71.60;;;;;;5008398;28;20272;-79
2023/09/07 04:47:24;;;;;;;;;;;19.00;71.60;;;;;;5026532;28;19955;-79
2023/09/07 04:49:52;;;;;;;;;;;19.00;71.60;;;;;;5025726;28;19947;-79
2023/09/07 04:52:19;;;;;;;;;;;19.00;71.70;;;;;;5025490;28;20476;-79
2023/09/07 04:54:46;;;;;;;;;;;19.00;71.70;;;;;;5026079;28;19950;-81
2023/09/07 04:57:13;;;;;;;;;;;18.50;73.10;;;;;;5032726;28;19947;-79
2023/09/07 04:59:40;;;;;;;;;;;18.40;74.60;;;;;;4975504;28;20057;-80
2023/09/07 05:02:07;;;;;;;;;;;18.30;74.40;;;;;;4981831;28;20065;-78
2023/09/07 05:04:34;;;;;;;;;;;18.30;74.70;;;;;;4980213;28;20107;-78
2023/09/07 05:07:02;;;;;;;;;;;18.30;75.00;;;;;;4983435;28;20590;-79
2023/09/07 05:09:29;;;;;;;;;;;18.30;74.70;;;;;;4984851;28;25084;-78
2023/09/07 05:11:56;;;;;;;;;;;18.30;74.40;;;;;;4985954;28;20001;-80
2023/09/07 05:14:23;;;;;;;;;;;18.30;74.20;;;;;;4965732;28;20050;-80
2023/09/07 05:16:49;;;;;;;;;;;18.30;74.80;;;;;;4984615;28;25171;-80
2023/09/07 05:19:16;;;;;;;;;;;18.40;73.90;;;;;;4981859;28;19973;-78
2023/09/07 05:21:44;;;;;;;;;;;18.30;73.80;;;;;;4980376;28;20150;-79
2023/09/07 05:24:13;;;;;;;;;;;18.40;73.80;;;;;;4986922;28;19952;-80
2023/09/07 05:26:40;;;;;;;;;;;18.40;73.80;;;;;;4985055;28;19970;-78
2023/09/07 05:29:07;;;;;;;;;;;18.40;73.80;;;;;;4979821;28;20143;-79
2023/09/07 05:31:33;;;;;;;;;;;18.40;73.80;;;;;;4966028;28;20154;-79
2023/09/07 05:34:00;;;;;;;;;;;18.30;73.70;;;;;;4986142;28;20565;-79
2023/09/07 05:36:27;;;;;;;;;;;18.40;73.80;;;;;;4989805;28;20100;-78
2023/09/07 05:38:54;;;;;;;;;;;18.30;73.70;;;;;;4982135;28;20368;-79
2023/09/07 05:41:22;;;;;;;;;;;18.30;73.70;;;;;;4984009;28;20117;-78
2023/09/07 05:43:49;;;;;;;;;;;18.30;73.80;;;;;;4971104;28;20068;-79
2023/09/07 05:46:16;;;;;;;;;;;18.30;73.90;;;;;;4987771;28;20487;-79
2023/09/07 05:48:43;;;;;;;;;;;18.30;73.90;;;;;;4989319;28;20194;-77
2023/09/07 05:51:10;;;;;;;;;;;18.30;74.10;;;;;;4990532;28;20124;-76
2023/09/07 05:53:36;;;;;;;;;;;18.30;74.10;;;;;;4986371;28;20096;-79
2023/09/07 05:56:03;;;;;;;;;;;18.20;74.00;;;;;;4990984;28;20146;-79
2023/09/07 05:58:32;;;;;;;;;;;18.20;74.10;;;;;;4971944;28;20100;-78
2023/09/07 06:00:58;;;;;;;;;;;18.20;74.20;;;;;;4973623;28;20092;-77
2023/09/07 06:03:25;;;;;;;;;;;18.20;74.30;;;;;;4988626;28;25135;-77
2023/09/07 06:05:52;;;;;;;;;;;18.20;74.30;;;;;;4978065;28;19976;-78
2023/09/07 06:08:18;;;;;;;;;;;18.20;74.40;;;;;;4984098;28;20083;-77
2023/09/07 06:10:45;;;;;;;;;;;18.20;74.50;;;;;;4987030;28;20097;-78
2023/09/07 06:13:12;;;;;;;;;;;18.10;74.50;;;;;;4992321;28;20087;-78
2023/09/07 06:15:40;;;;;;;;;;;18.10;74.60;;;;;;4988113;28;22051;-77
2023/09/07 06:18:07;;;;;;;;;;;18.10;74.70;;;;;;4988092;28;19975;-77
2023/09/07 06:20:35;;;;;;;;;;;18.10;74.80;;;;;;4974803;28;19959;-77
2023/09/07 06:23:02;;;;;;;;;;;18.10;74.90;;;;;;4993959;28;20122;-77
2023/09/07 06:25:28;;;;;;;;;;;18.10;75.00;;;;;;4990237;28;20089;-78
2023/09/07 06:27:57;;;;;;;;;;;18.10;75.20;;;;;;4995906;28;20086;-78
2023/09/07 06:30:24;;;;;;;;;;;18.10;75.20;;;;;;4989467;28;20077;-77
2023/09/07 06:32:53;;;;;;;;;;;18.00;75.20;;;;;;4970181;28;20172;-77
2023/09/07 06:35:20;;;;;;;;;;;18.10;75.40;;;;;;4969267;28;20101;-76
2023/09/07 06:37:46;;;;;;;;;;;18.00;75.40;;;;;;4986538;28;20631;-78
2023/09/07 06:40:15;;;;;;;;;;;18.00;75.50;;;;;;4981618;28;20071;-77
2023/09/07 06:42:41;;;;;;;;;;;18.00;75.70;;;;;;4983502;28;20096;-77
2023/09/07 06:45:09;;;;;;;;;;;18.00;75.70;;;;;;4979439;28;20109;-77
2023/09/07 06:47:36;;;;;;;;;;;18.00;75.90;;;;;;4982250;28;20237;-77
2023/09/07 06:50:05;;;;;;;;;;;18.00;76.00;;;;;;4980840;28;20107;-77
2023/09/07 06:52:32;;;;;;;;;;;18.00;76.00;;;;;;4962805;28;20597;-76
2023/09/07 06:54:58;;;;;;;;;;;18.00;76.10;;;;;;4982001;28;20106;-77
2023/09/07 06:57:25;;;;;;;;;;;18.00;76.10;;;;;;4984709;28;20143;-77
2023/09/07 06:59:52;;;;;;;;;;;17.90;76.20;;;;;;4980571;28;20109;-77
2023/09/07 07:02:18;;;;;;;;;;;17.90;76.30;;;;;;4978341;28;19985;-77
2023/09/07 07:04:46;;;;;;;;;;;18.00;76.40;;;;;;4981949;28;20009;-77
2023/09/07 07:07:14;;;;;;;;;;;18.00;76.60;;;;;;4980883;28;20454;-76
2023/09/07 07:09:41;;;;;;;;;;;17.90;76.60;;;;;;4976694;28;20170;-77
2023/09/07 07:12:07;;;;;;;;;;;17.90;76.60;;;;;;4969173;28;19977;-77
2023/09/07 07:14:34;;;;;;;;;;;17.90;76.70;;;;;;4987384;28;20065;-78
2023/09/07 07:17:01;;;;;;;;;;;17.90;76.80;;;;;;4983273;28;20117;-77
2023/09/07 07:19:28;;;;;;;;;;;17.90;76.90;;;;;;4980513;28;20246;-76
2023/09/07 07:21:55;;;;;;;;;;;18.00;77.00;;;;;;4961996;28;19961;-77
2023/09/07 07:24:23;;;;;;;;;;;18.00;77.10;;;;;;4982184;28;20109;-78
2023/09/07 07:26:50;;;;;;;;;;;17.90;77.00;;;;;;4985227;28;19968;-77
2023/09/07 07:29:16;;;;;;;;;;;17.90;77.00;;;;;;4989186;28;20598;-77
2023/09/07 07:31:43;;;;;;;;;;;17.90;77.10;;;;;;4985927;28;20105;-78
2023/09/07 07:34:10;;;;;;;;;;;18.00;77.20;;;;;;4986089;28;20848;-75
2023/09/07 07:36:36;;;;;;;;;;;18.00;77.40;;;;;;4982148;28;20083;-76
2023/09/07 07:39:04;;;;;;;;;;;18.00;77.40;;;;;;4980375;28;20107;-77
2023/09/07 07:41:31;;;;;;;;;;;18.00;77.50;;;;;;4982472;28;20698;-77
2023/09/07 07:43:58;;;;;;;;;;;18.00;77.60;;;;;;4980999;28;20090;-77
2023/09/07 07:46:25;;;;;;;;;;;18.00;77.60;;;;;;4975183;28;19980;-77
2023/09/07 07:48:51;;;;;;;;;;;18.00;77.70;;;;;;4960958;28;20192;-76
2023/09/07 07:51:18;;;;;;;;;;;18.00;77.90;;;;;;4965630;28;20166;-77
2023/09/07 07:53:45;;;;;;;;;;;18.00;77.80;;;;;;4983806;28;20598;-77
2023/09/07 07:56:17;;;;;;;;;;;18.10;78.00;;;;;;4982343;28;20102;-77
2023/09/07 07:58:46;;;;;;;;;;;18.10;78.00;;;;;;4983199;28;21424;-77
2023/09/07 08:01:16;;;;;;;;;;;18.10;78.00;;;;;;4980048;28;20182;-76
2023/09/07 08:03:42;;;;;;;;;;;18.10;78.20;;;;;;4984685;28;20108;-77
2023/09/07 08:06:11;;;;;;;;;;;18.10;78.30;;;;;;4984464;28;20087;-77
2023/09/07 08:08:38;;;;;;;;;;;18.20;78.40;;;;;;4983295;28;20103;-77
2023/09/07 08:11:05;;;;;;;;;;;18.20;78.50;;;;;;4984134;28;20096;-77
2023/09/07 08:13:32;;;;;;;;;;;18.20;78.30;;;;;;4986684;28;20106;-77
2023/09/07 08:16:00;;;;;;;;;;;18.20;78.50;;;;;;4964693;28;20696;-78
2023/09/07 08:18:27;;;;;;;;;;;18.20;78.60;;;;;;4988098;28;20641;-78
2023/09/07 08:20:54;;;;;;;;;;;18.30;78.50;;;;;;4985726;28;20077;-78
2023/09/07 08:23:22;;;;;;;;;;;18.30;78.40;;;;;;4986018;28;20102;-77
2023/09/07 08:25:49;;;;;;;;;;;18.30;78.50;;;;;;4987312;28;20085;-77
2023/09/07 08:28:18;;;;;;;;;;;18.40;78.30;;;;;;4965034;28;20122;-76
2023/09/07 08:30:45;;;;;;;;;;;18.40;78.30;;;;;;4984115;28;19978;-77
2023/09/07 08:33:13;;;;;;;;;;;18.50;78.40;;;;;;4966659;28;20121;-76
2023/09/07 08:35:43;;;;;;;;;;;18.50;78.50;;;;;;4984912;28;20079;-77
2023/09/07 08:38:10;;;;;;;;;;;18.60;78.40;;;;;;4979804;28;20072;-78
2023/09/07 08:40:40;;;;;;;;;;;18.70;78.30;;;;;;4981506;28;20117;-77
2023/09/07 08:43:09;;;;;;;;;;;18.70;78.10;;;;;;4967220;28;25103;-77
2023/09/07 08:45:40;;;;;;;;;;;18.70;78.00;;;;;;4975505;28;20340;-77
2023/09/07 08:48:07;;;;;;;;;;;18.80;77.70;;;;;;4985782;28;20078;-77
2023/09/07 08:50:37;;;;;;;;;;;18.80;77.70;;;;;;4966383;28;20030;-77
2023/09/07 08:53:04;;;;;;;;;;;18.90;77.70;;;;;;4961885;28;19965;-77
2023/09/07 08:55:31;;;;;;;;;;;18.90;77.60;;;;;;4966099;28;20069;-78
2023/09/07 08:57:58;;;;;;;;;;;19.00;77.50;;;;;;4977809;28;20092;-77
2023/09/07 09:00:24;;;;;;;;;;;19.00;77.30;;;;;;4983124;28;20077;-78
2023/09/07 09:02:54;;;;;;;;;;;19.10;77.30;;;;;;4982570;28;20073;-77
2023/09/07 09:05:21;;;;;;;;;;;19.20;77.20;;;;;;4979556;28;20152;-77
2023/09/07 09:07:49;;;;;;;;;;;19.20;77.10;;;;;;4984725;28;20120;-77
2023/09/07 09:10:18;;;;;;;;;;;19.20;76.90;;;;;;4978810;28;20189;-77
2023/09/07 09:12:48;;;;;;;;;;;19.40;76.80;;;;;;4964095;28;20113;-78
2023/09/07 09:15:16;;;;;;;;;;;19.40;76.60;;;;;;4986135;28;20090;-78
2023/09/07 09:17:42;;;;;;;;;;;19.40;76.30;;;;;;4989575;28;20381;-77
2023/09/07 09:20:20;;;;;;;;;;;19.50;76.00;;;;;;4981973;28;20111;-77
2023/09/07 09:22:49;;;;;;;;;;;19.60;75.80;;;;;;4983107;28;19973;-77
2023/09/07 09:25:16;;;;;;;;;;;19.60;75.60;;;;;;4980845;28;19998;-78
2023/09/07 09:27:42;;;;;;;;;;;19.70;75.60;;;;;;4980004;28;20089;-78
2023/09/07 09:30:09;;;;;;;;;;;19.70;76.20;;;;;;4981571;28;20091;-77
2023/09/07 09:32:36;;;;;;;;;;;19.80;75.50;;;;;;4963892;28;20180;-77
2023/09/07 09:35:03;;;;;;;;;;;19.90;75.40;;;;;;4980468;28;20106;-77
2023/09/07 09:37:32;;;;;;;;;;;19.90;75.40;;;;;;4981587;28;25057;-78
2023/09/07 09:40:03;;;;;;;;;;;20.00;75.30;;;;;;4979605;28;19995;-77
2023/09/07 09:42:30;;;;;;;;;;;20.10;75.20;;;;;;4980702;28;19974;-78
2023/09/07 09:44:57;;;;;;;;;;;20.20;75.10;;;;;;4981829;28;20145;-76
2023/09/07 09:47:25;;;;;;;;;;;20.20;74.90;;;;;;4957905;28;20233;-78
2023/09/07 09:49:52;;;;;;;;;;;20.30;74.80;;;;;;4981535;28;19953;-77
2023/09/07 09:52:18;;;;;;;;;;;20.30;74.70;;;;;;4977147;28;20141;-77
2023/09/07 09:54:46;;;;;;;;;;;20.40;74.50;;;;;;4961655;28;19997;-77
2023/09/07 09:57:15;;;;;;;;;;;20.50;74.40;;;;;;4972305;28;20094;-77
2023/09/07 09:59:43;;;;;;;;;;;20.50;74.40;;;;;;4958960;28;20784;-76
2023/09/07 10:02:12;;;;;;;;;;;20.60;74.20;;;;;;4976665;28;20079;-78
2023/09/07 10:04:39;;;;;;;;;;;20.60;74.10;;;;;;4981953;28;19949;-76
2023/09/07 10:07:06;;;;;;;;;;;20.70;73.80;;;;;;4979501;28;20106;-77
2023/09/07 10:09:33;;;;;;;;;;;20.80;73.70;;;;;;4961522;28;20094;-76
2023/09/07 10:12:00;;;;;;;;;;;20.80;73.70;;;;;;4977659;28;20175;-77
2023/09/07 10:14:38;;;;;;;;;;;20.90;73.60;;;;;;4980217;28;19949;-77
2023/09/07 10:17:04;;;;;;;;;;;21.00;73.40;;;;;;4977313;28;19953;-76
2023/09/07 10:19:31;;;;;;;;;;;21.00;73.20;;;;;;4978543;28;20090;-76
2023/09/07 10:21:58;;;;;;;;;;;21.10;73.20;;;;;;4976442;28;20516;-77
2023/09/07 10:24:26;;;;;;;;;;;21.20;73.00;;;;;;4977939;28;25068;-77
2023/09/07 10:26:57;;;;;;;;;;;21.20;73.00;;;;;;4947545;28;20030;-77
2023/09/07 10:29:23;;;;;;;;;;;21.30;72.90;;;;;;4981351;28;19974;-76
2023/09/07 10:31:53;;;;;;;;;;;21.40;72.80;;;;;;4976990;28;20092;-76
2023/09/07 10:34:20;;;;;;;;;;;21.40;72.60;;;;;;4980232;28;20126;-76
2023/09/07 10:36:47;;;;;;;;;;;21.50;72.40;;;;;;4982612;28;21293;-76
2023/09/07 10:39:14;;;;;;;;;;;21.60;72.20;;;;;;5002064;28;20585;-77
2023/09/07 10:41:44;;;;;;;;;;;21.70;72.20;;;;;;4992710;28;25110;-76
2023/09/07 10:44:12;;;;;;;;;;;21.70;72.20;;;;;;5046540;28;20002;-76
2023/09/07 10:46:39;;;;;;;;;;;21.80;71.90;;;;;;5000542;28;20464;-76
2023/09/07 10:49:09;;;;;;;;;;;21.90;71.60;;;;;;5003668;28;20149;-76
2023/09/07 10:51:47;;;;;;;;;;;21.90;71.70;;;;;;4995717;28;19980;-77
2023/09/07 10:54:15;;;;;;;;;;;22.00;71.60;;;;;;5006523;28;19969;-76
2023/09/07 10:56:42;;;;;;;;;;;22.10;71.50;;;;;;5001267;28;25068;-76
2023/09/07 10:59:08;;;;;;;;;;;22.10;71.20;;;;;;4995697;28;20033;-77
2023/09/07 11:01:35;;;;;;;;;;;22.30;71.30;;;;;;5004711;28;19969;-76
2023/09/07 11:04:02;;;;;;;;;;;22.30;70.60;;;;;;5012408;28;20096;-77
2023/09/07 11:06:30;;;;;;;;;;;22.40;70.80;;;;;;5006163;28;20192;-78
2023/09/07 11:09:00;;;;;;;;;;;22.40;70.60;;;;;;5003595;28;19967;-78
2023/09/07 11:11:27;;;;;;;;;;;22.50;70.40;;;;;;5005213;28;20353;-78
2023/09/07 11:13:54;;;;;;;;;;;22.60;70.10;;;;;;5004994;28;20107;-78
2023/09/07 11:16:21;;;;;;;;;;;22.70;70.00;;;;;;5004494;28;20191;-78
2023/09/07 11:18:47;;;;;;;;;;;22.70;69.90;;;;;;5000580;28;25087;-78
2023/09/07 11:21:15;;;;;;;;;;;22.80;69.60;;;;;;5004268;28;20325;-76
2023/09/07 11:23:44;;;;;;;;;;;22.90;69.70;;;;;;5019897;28;20122;-78
2023/09/07 11:26:11;;;;;;;;;;;23.00;69.40;;;;;;5012498;28;20111;-75
2023/09/07 11:28:38;;;;;;;;;;;23.00;69.40;;;;;;5007100;28;20112;-78
2023/09/07 11:31:05;;;;;;;;;;;23.10;69.20;;;;;;5003438;28;20473;-78
2023/09/07 11:33:32;;;;;;;;;;;23.10;68.80;;;;;;4986408;28;20112;-78
2023/09/07 11:35:59;;;;;;;;;;;23.20;68.80;;;;;;4995958;28;21901;-78
2023/09/07 11:38:30;;;;;;;;;;;23.30;68.50;;;;;;5004608;28;20403;-78
2023/09/07 11:40:58;;;;;;;;;;;23.40;68.40;;;;;;5013410;28;19990;-77
2023/09/07 11:43:24;;;;;;;;;;;23.50;68.00;;;;;;5014952;28;19974;-78
2023/09/07 11:45:51;;;;;;;;;;;23.50;67.70;;;;;;5010813;28;20090;-78
2023/09/07 11:48:18;;;;;;;;;;;23.60;67.60;;;;;;5006820;28;20127;-78
2023/09/07 11:50:45;;;;;;;;;;;23.60;67.50;;;;;;5004324;28;20124;-75
2023/09/07 11:53:12;;;;;;;;;;;23.70;67.50;;;;;;5012717;28;19973;-77
2023/09/07 11:55:39;;;;;;;;;;;23.80;67.20;;;;;;5000370;28;20117;-76
2023/09/07 11:58:07;;;;;;;;;;;23.80;66.80;;;;;;5007007;28;20090;-76
2023/09/07 12:00:34;;;;;;;;;;;23.90;66.80;;;;;;5003831;28;20088;-77
2023/09/07 12:03:01;;;;;;;;;;;24.00;66.50;;;;;;4997479;28;20100;-76
2023/09/07 12:05:28;;;;;;;;;;;24.00;66.70;;;;;;4995270;28;20150;-76
2023/09/07 12:07:54;;;;;;;;;;;24.10;66.50;;;;;;4997029;28;20169;-76
2023/09/07 12:10:21;;;;;;;;;;;24.20;66.00;;;;;;5003093;28;20010;-76
2023/09/07 12:12:48;;;;;;;;;;;24.20;65.60;;;;;;4989838;28;20156;-76
2023/09/07 12:15:17;;;;;;;;;;;24.30;65.80;;;;;;5001929;28;20114;-76
2023/09/07 12:17:44;;;;;;;;;;;24.40;65.70;;;;;;5000700;28;19968;-76
2023/09/07 12:20:13;;;;;;;;;;;24.40;65.30;;;;;;5002587;28;20546;-77
2023/09/07 12:22:40;;;;;;;;;;;24.50;65.40;;;;;;5003945;28;20144;-75
2023/09/07 12:25:07;;;;;;;;;;;24.60;65.30;;;;;;5000357;28;20167;-77
2023/09/07 12:27:35;;;;;;;;;;;24.70;65.00;;;;;;5000313;28;20208;-77
2023/09/07 12:30:02;;;;;;;;;;;24.70;64.60;;;;;;5000888;28;20133;-78
2023/09/07 12:32:30;;;;;;;;;;;24.70;64.30;;;;;;5003732;28;20124;-76
2023/09/07 12:34:57;;;;;;;;;;;24.80;64.00;;;;;;5009791;28;20467;-77
2023/09/07 12:37:24;;;;;;;;;;;24.90;63.70;;;;;;4999218;28;20621;-77
2023/09/07 12:39:51;;;;;;;;;;;24.90;63.30;;;;;;4995569;28;20196;-77
2023/09/07 12:45:21;;;;;;;;;;;25.10;63.50;;;;;;4997595;28;20114;-76
2023/09/07 12:47:50;;;;;;;;;;;25.10;63.50;;;;;;5003807;28;20541;-77
2023/09/07 12:50:16;;;;;;;;;;;25.20;63.40;;;;;;5003912;28;20485;-77
2023/09/07 12:52:43;;;;;;;;;;;25.20;62.60;;;;;;5007230;28;20115;-77
2023/09/07 12:55:10;;;;;;;;;;;25.30;62.60;;;;;;4995849;28;20141;-77
2023/09/07 12:57:36;;;;;;;;;;;25.40;62.60;;;;;;5001168;28;20175;-77
2023/09/07 13:00:04;;;;;;;;;;;25.40;62.30;;;;;;4997095;28;20135;-77
2023/09/07 13:02:30;;;;;;;;;;;25.40;61.70;;;;;;4992615;28;25122;-77
2023/09/07 13:04:59;;;;;;;;;;;25.50;62.00;;;;;;5001927;28;19970;-76
2023/09/07 13:07:25;;;;;;;;;;;25.60;61.30;;;;;;4996494;28;20017;-77
2023/09/07 13:09:52;;;;;;;;;;;25.60;61.80;;;;;;4995446;28;20562;-77
2023/09/07 13:12:19;;;;;;;;;;;25.60;61.10;;;;;;4994494;28;20140;-77
2023/09/07 13:14:47;;;;;;;;;;;25.70;61.40;;;;;;5001807;28;19973;-77
2023/09/07 13:17:14;;;;;;;;;;;25.70;61.30;;;;;;5006188;28;19961;-77
2023/09/07 13:19:41;;;;;;;;;;;25.80;60.70;;;;;;4997625;28;19963;-77
2023/09/07 13:22:10;;;;;;;;;;;25.90;61.10;;;;;;4991022;28;20110;-77
2023/09/07 13:24:38;;;;;;;;;;;25.90;60.50;;;;;;5002630;28;20100;-76
2023/09/07 13:27:05;;;;;;;;;;;26.00;60.60;;;;;;5000230;28;20122;-77
2023/09/07 13:29:32;;;;;;;;;;;26.00;60.50;;;;;;5004724;28;21161;-77
2023/09/07 13:31:59;;;;;;;;;;;26.10;60.50;;;;;;5004279;28;20051;-76
2023/09/07 13:34:26;;;;;;;;;;;26.10;59.80;;;;;;5000637;28;20003;-78
2023/09/07 13:36:53;;;;;;;;;;;26.20;60.40;;;;;;4993189;28;19959;-76
2023/09/07 13:39:21;;;;;;;;;;;26.30;59.90;;;;;;4966483;28;25067;-78
2023/09/07 13:41:48;;;;;;;;;;;26.30;59.50;;;;;;4969058;28;20397;-76
2023/09/07 13:44:15;;;;;;;;;;;26.40;59.70;;;;;;4968577;28;19963;-77
2023/09/07 13:46:43;;;;;;;;;;;26.50;59.60;;;;;;4952397;28;21132;-78
2023/09/07 13:49:10;;;;;;;;;;;26.50;59.00;;;;;;4971898;28;20109;-77
2023/09/07 13:51:39;;;;;;;;;;;26.60;59.40;;;;;;4952293;28;20119;-77
2023/09/07 13:54:06;;;;;;;;;;;26.60;58.70;;;;;;4971250;28;20091;-77
2023/09/07 13:56:36;;;;;;;;;;;26.70;58.40;;;;;;4971634;28;20764;-76
2023/09/07 13:59:02;;;;;;;;;;;26.70;58.90;;;;;;4972810;28;20144;-77
2023/09/07 14:01:29;;;;;;;;;;;26.80;58.80;;;;;;4955153;28;19979;-78
2023/09/07 14:03:56;;;;;;;;;;;26.80;58.30;;;;;;4955120;28;20052;-77
2023/09/07 14:06:23;;;;;;;;;;;26.90;58.70;;;;;;4971565;28;20143;-78
2023/09/07 14:08:51;;;;;;;;;;;27.00;57.90;;;;;;4968243;28;20146;-77
2023/09/07 14:11:17;;;;;;;;;;;27.00;58.00;;;;;;4970915;28;20037;-77
2023/09/07 14:13:47;;;;;;;;;;;27.10;58.10;;;;;;4969323;28;19969;-76
2023/09/07 14:16:14;;;;;;;;;;;27.20;57.70;;;;;;4968262;28;20166;-77
2023/09/07 14:18:41;;;;;;;;;;;27.20;57.70;;;;;;4970051;28;20101;-78